createdAt,value
2022-08-09T00:00:19.554Z,52.56
2022-08-09T00:02:49.336Z,52.75
2022-08-09T00:06:18.957Z,52.71
2022-08-09T00:08:02.404Z,52.75
2022-08-09T00:10:28.578Z,52.87
2022-08-09T00:12:54.726Z,53.04
2022-08-09T00:15:26.538Z,53.23
2022-08-09T00:18:11.588Z,53.17
2022-08-09T00:20:38.449Z,53.41
2022-08-09T00:23:56.554Z,53.46
2022-08-09T00:25:54.615Z,53.61
2022-08-09T00:28:22.363Z,53.74
2022-08-09T00:30:52.508Z,53.96
2022-08-09T00:33:18.660Z,53.92
2022-08-09T00:35:59.006Z,54.19
2022-08-09T00:38:25.156Z,54.30
2022-08-09T00:40:53.126Z,54.53
2022-08-09T00:44:15.502Z,54.57
2022-08-09T00:46:05.746Z,54.90
2022-08-09T00:48:32.975Z,54.85
2022-08-09T00:50:59.213Z,55.34
2022-08-09T00:53:25.361Z,55.40
2022-08-09T00:56:04.842Z,55.60
2022-08-09T00:58:35.686Z,55.85
2022-08-09T01:01:02.644Z,55.94
2022-08-09T01:03:29.599Z,56.28
2022-08-09T01:05:58.865Z,56.25
2022-08-09T01:08:30.087Z,56.51
2022-08-09T01:10:56.406Z,56.39
2022-08-09T01:13:22.885Z,56.67
2022-08-09T01:15:52.495Z,56.70
2022-08-09T01:18:18.963Z,56.79
2022-08-09T01:20:56.164Z,57.18
2022-08-09T01:24:02.382Z,57.23
2022-08-09T01:26:08.428Z,57.36
2022-08-09T01:28:34.550Z,57.34
2022-08-09T01:31:00.677Z,57.63
2022-08-09T01:33:26.832Z,57.69
2022-08-09T01:35:52.962Z,57.99
2022-08-09T01:38:19.621Z,58.16
2022-08-09T01:40:53.004Z,58.15
2022-08-09T01:43:29.017Z,58.21
2022-08-09T01:45:59.873Z,58.21
2022-08-09T01:48:29.640Z,58.26
2022-08-09T01:50:57.636Z,58.23
2022-08-09T01:53:29.257Z,58.32
2022-08-09T01:56:07.826Z,58.37
2022-08-09T01:58:34.420Z,58.57
2022-08-09T02:01:00.561Z,58.67
2022-08-09T02:03:26.712Z,58.85
2022-08-09T02:06:06.273Z,58.89
2022-08-09T02:08:40.229Z,58.88
2022-08-09T02:11:19.361Z,59.17
2022-08-09T02:13:55.273Z,59.49
2022-08-09T02:16:33.869Z,59.54
2022-08-09T02:19:19.081Z,59.64
2022-08-09T02:21:46.503Z,59.84
2022-08-09T02:24:12.720Z,59.86
2022-08-09T02:26:52.714Z,60.04
2022-08-09T02:29:18.861Z,60.15
2022-08-09T02:31:47.113Z,60.57
2022-08-09T02:34:40.779Z,60.32
2022-08-09T02:36:59.381Z,60.28
2022-08-09T02:39:34.063Z,60.35
2022-08-09T02:42:08.285Z,60.36
2022-08-09T02:44:34.438Z,60.39
2022-08-09T02:47:02.080Z,60.61
2022-08-09T02:49:38.470Z,60.73
2022-08-09T02:52:07.176Z,60.62
2022-08-09T02:54:33.997Z,60.65
2022-08-09T02:57:01.102Z,60.85
2022-08-09T02:59:39.947Z,60.60
2022-08-09T03:02:26.078Z,60.71
2022-08-09T03:04:53.445Z,60.85
2022-08-09T03:07:19.829Z,60.79
2022-08-09T03:09:54.375Z,61.00
2022-08-09T03:12:23.004Z,60.99
2022-08-09T03:14:49.138Z,60.92
2022-08-09T03:17:16.439Z,60.99
2022-08-09T03:19:52.865Z,61.36
2022-08-09T03:22:30.304Z,61.44
2022-08-09T03:25:06.455Z,61.54
2022-08-09T03:27:45.530Z,61.46
2022-08-09T03:30:11.984Z,61.69
2022-08-09T03:32:38.916Z,61.70
2022-08-09T03:35:24.166Z,61.91
2022-08-09T03:37:56.413Z,62.11
2022-08-09T03:40:24.654Z,62.17
2022-08-09T03:42:50.813Z,62.30
2022-08-09T03:45:16.971Z,62.19
2022-08-09T03:48:03.085Z,62.37
2022-08-09T03:50:31.829Z,62.61
2022-08-09T03:52:58.225Z,62.53
2022-08-09T03:55:25.202Z,62.77
2022-08-09T03:58:03.341Z,62.65
2022-08-09T04:00:32.747Z,63.01
2022-08-09T04:02:58.913Z,63.06
2022-08-09T04:05:27.902Z,63.03
2022-08-09T04:07:57.291Z,63.15
2022-08-09T04:10:28.407Z,63.10
2022-08-09T04:12:56.269Z,63.23
2022-08-09T04:15:39.157Z,63.56
2022-08-09T04:18:16.585Z,63.70
2022-08-09T04:20:45.547Z,63.78
2022-08-09T04:23:17.029Z,63.71
2022-08-09T04:25:43.802Z,63.84
2022-08-09T04:28:09.934Z,64.08
2022-08-09T04:30:38.685Z,64.15
2022-08-09T04:33:11.014Z,63.97
2022-08-09T04:35:37.141Z,64.00
2022-08-09T04:38:08.432Z,64.11
2022-08-09T04:40:36.599Z,64.21
2022-08-09T04:43:03.723Z,64.23
2022-08-09T04:45:30.632Z,64.35
2022-08-09T04:48:00.300Z,64.14
2022-08-09T04:50:34.795Z,64.23
2022-08-09T04:53:04.104Z,64.07
2022-08-09T04:55:38.337Z,64.24
2022-08-09T04:58:09.629Z,64.27
2022-08-09T05:00:36.177Z,64.19
2022-08-09T05:03:30.204Z,64.21
2022-08-09T05:05:52.569Z,64.14
2022-08-09T05:08:30.809Z,64.04
2022-08-09T05:10:57.296Z,64.15
2022-08-09T05:13:27.243Z,64.27
2022-08-09T05:15:56.726Z,63.99
2022-08-09T05:18:37.559Z,64.08
2022-08-09T05:21:09.875Z,64.43
2022-08-09T05:23:53.534Z,64.37
2022-08-09T05:26:36.112Z,64.27
2022-08-09T05:29:04.135Z,64.44
2022-08-09T05:31:46.353Z,64.31
2022-08-09T05:34:17.081Z,64.27
2022-08-09T05:36:43.662Z,64.32
2022-08-09T05:39:13.090Z,64.41
2022-08-09T05:41:39.265Z,64.22
2022-08-09T05:44:06.774Z,64.26
2022-08-09T05:46:35.066Z,64.22
2022-08-09T05:49:01.214Z,64.18
2022-08-09T05:51:42.723Z,64.24
2022-08-09T05:54:12.572Z,64.45
2022-08-09T05:56:54.519Z,64.30
2022-08-09T05:59:21.709Z,64.32
2022-08-09T06:01:47.837Z,64.15
2022-08-09T06:04:14.568Z,64.22
2022-08-09T06:06:50.156Z,64.40
2022-08-09T06:09:40.548Z,64.15
2022-08-09T06:12:04.150Z,64.10
2022-08-09T06:14:30.434Z,63.88
2022-08-09T06:16:57.229Z,63.85
2022-08-09T06:19:24.269Z,63.91
2022-08-09T06:21:58.915Z,63.64
2022-08-09T06:24:25.272Z,63.51
2022-08-09T06:26:51.394Z,63.33
2022-08-09T06:29:17.693Z,63.35
2022-08-09T06:32:17.246Z,63.14
2022-08-09T06:34:34.041Z,63.14
2022-08-09T06:37:00.385Z,62.87
2022-08-09T06:39:38.802Z,62.80
2022-08-09T06:42:12.732Z,62.57
2022-08-09T06:44:38.865Z,62.41
2022-08-09T06:47:05.010Z,62.38
2022-08-09T06:50:12.202Z,62.29
2022-08-09T06:52:23.713Z,61.97
2022-08-09T06:54:51.473Z,61.87
2022-08-09T06:57:20.273Z,61.58
2022-08-09T07:00:54.357Z,61.48
2022-08-09T07:02:52.622Z,61.48
2022-08-09T07:05:18.907Z,61.11
2022-08-09T07:08:00.247Z,60.98
2022-08-09T07:10:31.191Z,60.64
2022-08-09T07:12:58.505Z,60.54
2022-08-09T07:16:34.873Z,60.30
2022-08-09T07:18:10.780Z,60.01
2022-08-09T07:20:40.497Z,59.94
2022-08-09T07:23:19.082Z,59.52
2022-08-09T07:25:46.661Z,59.47
2022-08-09T07:28:19.151Z,59.25
2022-08-09T07:30:52.499Z,59.08
2022-08-09T07:33:18.630Z,59.02
2022-08-09T07:35:53.454Z,58.75
2022-08-09T07:38:20.613Z,58.78
2022-08-09T07:41:10.082Z,58.46
2022-08-09T07:43:49.587Z,58.04
2022-08-09T07:46:21.707Z,57.77
2022-08-09T07:48:58.966Z,58.00
2022-08-09T07:52:05.616Z,57.52
2022-08-09T07:54:11.962Z,57.71
2022-08-09T07:56:49.323Z,57.59
2022-08-09T07:59:33.786Z,57.94
2022-08-09T08:02:01.154Z,58.08
2022-08-09T08:04:31.448Z,58.26
2022-08-09T08:07:09.176Z,58.36
2022-08-09T08:09:51.492Z,58.24
2022-08-09T08:12:27.992Z,58.21
2022-08-09T08:15:00.601Z,58.10
2022-08-09T08:17:53.089Z,57.81
2022-08-09T08:20:13.722Z,57.66
2022-08-09T08:22:40.146Z,57.48
2022-08-09T08:25:09.363Z,57.22
2022-08-09T08:27:40.735Z,57.08
2022-08-09T08:30:07.105Z,57.04
2022-08-09T08:32:37.466Z,56.39
2022-08-09T08:35:19.163Z,56.10
2022-08-09T08:37:59.395Z,55.73
2022-08-09T08:40:29.648Z,55.25
2022-08-09T08:42:58.341Z,55.10
2022-08-09T08:45:37.289Z,54.95
2022-08-09T08:48:05.316Z,54.93
2022-08-09T08:50:31.529Z,54.83
2022-08-09T08:53:00.545Z,54.67
2022-08-09T08:55:27.083Z,54.48
2022-08-09T08:57:57.165Z,54.29
2022-08-09T09:00:27.805Z,54.47
2022-08-09T09:02:59.418Z,54.60
2022-08-09T09:05:57.562Z,54.57
2022-08-09T09:08:30.992Z,54.71
2022-08-09T09:10:57.869Z,54.29
2022-08-09T09:13:24.040Z,54.22
2022-08-09T09:16:00.963Z,54.02
2022-08-09T09:18:29.249Z,53.51
2022-08-09T09:20:56.033Z,53.11
2022-08-09T09:23:24.443Z,52.96
2022-08-09T09:26:12.352Z,52.96
2022-08-09T09:28:39.161Z,52.87
2022-08-09T09:32:04.440Z,52.73
2022-08-09T09:34:11.168Z,52.51
2022-08-09T09:36:46.710Z,52.26
2022-08-09T09:39:20.492Z,52.07
2022-08-09T09:41:49.816Z,51.71
2022-08-09T09:44:25.402Z,51.57
2022-08-09T09:46:52.781Z,51.09
2022-08-09T09:49:18.978Z,51.19
2022-08-09T09:51:58.550Z,50.98
2022-08-09T09:54:26.586Z,50.50
2022-08-09T09:58:02.923Z,50.59
2022-08-09T09:59:39.789Z,50.02
2022-08-09T10:02:05.917Z,49.78
2022-08-09T10:04:32.098Z,49.66
2022-08-09T10:06:58.272Z,49.39
2022-08-09T10:09:29.487Z,49.05
2022-08-09T10:12:11.593Z,48.87
2022-08-09T10:14:38.913Z,48.52
2022-08-09T10:17:24.378Z,47.40
2022-08-09T10:19:53.042Z,46.79
2022-08-09T10:22:23.225Z,46.78
2022-08-09T10:24:55.823Z,46.67
2022-08-09T10:27:24.823Z,46.55
2022-08-09T10:30:27.318Z,46.26
2022-08-09T10:32:42.444Z,45.81
2022-08-09T10:35:09.693Z,45.75
2022-08-09T10:37:38.310Z,45.94
2022-08-09T10:40:05.304Z,45.10
2022-08-09T10:42:32.240Z,44.72
2022-08-09T10:45:00.129Z,44.61
2022-08-09T10:48:19.229Z,44.37
2022-08-09T10:50:14.970Z,44.08
2022-08-09T10:52:44.539Z,43.73
2022-08-09T10:55:11.008Z,43.20
2022-08-09T10:57:37.832Z,43.20
2022-08-09T11:00:07.898Z,43.24
2022-08-09T11:03:15.112Z,43.02
2022-08-09T11:05:24.911Z,42.73
2022-08-09T11:07:58.456Z,42.62
2022-08-09T11:10:29.265Z,42.35
2022-08-09T11:12:56.757Z,42.26
2022-08-09T11:15:23.956Z,42.47
2022-08-09T11:17:53.458Z,42.68
2022-08-09T11:20:23.515Z,42.55
2022-08-09T11:22:56.944Z,42.40
2022-08-09T11:25:26.057Z,42.44
2022-08-09T11:28:08.017Z,42.43
2022-08-09T11:30:48.377Z,42.05
2022-08-09T11:33:15.452Z,41.88
2022-08-09T11:35:49.671Z,41.82
2022-08-09T11:38:16.630Z,41.73
2022-08-09T11:40:43.259Z,41.51
2022-08-09T11:43:09.957Z,41.52
2022-08-09T11:45:42.688Z,41.40
2022-08-09T11:48:17.509Z,41.14
2022-08-09T11:50:55.068Z,41.02
2022-08-09T11:54:01.210Z,40.72
2022-08-09T11:56:24.062Z,40.50
2022-08-09T11:59:10.582Z,40.20
2022-08-09T12:02:17.977Z,40.34
2022-08-09T12:04:28.597Z,40.09
2022-08-09T12:06:55.673Z,39.88
2022-08-09T12:09:22.361Z,39.88
2022-08-09T12:12:03.327Z,39.55
2022-08-09T12:14:41.025Z,39.43
2022-08-09T12:17:27.649Z,38.99
2022-08-09T12:20:01.090Z,39.21
2022-08-09T12:22:27.233Z,39.03
2022-08-09T12:24:55.273Z,38.83
2022-08-09T12:29:14.243Z,38.72
2022-08-09T12:30:36.814Z,38.48
2022-08-09T12:32:56.649Z,38.47
2022-08-09T12:35:23.818Z,38.37
2022-08-09T12:37:52.497Z,38.09
2022-08-09T12:40:20.110Z,38.00
2022-08-09T12:42:46.234Z,37.93
2022-08-09T12:45:34.704Z,38.07
2022-08-09T12:48:02.551Z,38.14
2022-08-09T12:50:28.745Z,37.98
2022-08-09T12:53:08.585Z,37.81
2022-08-09T12:56:15.908Z,37.69
2022-08-09T12:58:28.356Z,37.77
2022-08-09T13:00:54.842Z,37.49
2022-08-09T13:03:28.365Z,37.38
2022-08-09T13:06:14.433Z,37.19
2022-08-09T13:08:43.568Z,37.31
2022-08-09T13:11:25.870Z,36.94
2022-08-09T13:14:41.855Z,37.00
2022-08-09T13:16:38.662Z,37.02
2022-08-09T13:19:11.042Z,37.01
2022-08-09T13:22:36.147Z,36.93
2022-08-09T13:24:53.246Z,36.84
2022-08-09T13:27:09.732Z,36.63
2022-08-09T13:30:03.020Z,36.50
2022-08-09T13:32:27.691Z,36.29
2022-08-09T13:34:55.253Z,36.60
2022-08-09T13:37:50.911Z,36.41
2022-08-09T13:41:50.416Z,36.37
2022-08-09T13:42:53.690Z,36.23
2022-08-09T13:45:19.990Z,35.97
2022-08-09T13:47:51.236Z,35.76
2022-08-09T13:50:31.293Z,36.00
2022-08-09T13:52:58.059Z,35.87
2022-08-09T13:55:24.197Z,35.84
2022-08-09T13:57:56.316Z,36.11
2022-08-09T14:00:28.399Z,36.15
2022-08-09T14:03:17.116Z,36.23
2022-08-09T14:05:57.176Z,36.12
2022-08-09T14:08:28.342Z,35.93
2022-08-09T14:10:54.639Z,35.48
2022-08-09T14:13:21.677Z,35.85
2022-08-09T14:16:09.189Z,35.52
2022-08-09T14:18:37.386Z,35.29
2022-08-09T14:21:03.736Z,35.38
2022-08-09T14:23:40.184Z,34.95
2022-08-09T14:26:12.978Z,34.71
2022-08-09T14:28:39.110Z,34.73
2022-08-09T14:31:06.662Z,34.68
2022-08-09T14:33:38.053Z,34.36
2022-08-09T14:36:20.244Z,34.13
2022-08-09T14:38:47.237Z,34.05
2022-08-09T14:41:26.635Z,33.82
2022-08-09T14:44:02.843Z,33.54
2022-08-09T14:46:51.324Z,33.09
2022-08-09T14:49:16.259Z,32.52
2022-08-09T14:51:42.814Z,32.35
2022-08-09T14:54:08.994Z,32.27
2022-08-09T14:56:35.150Z,32.35
2022-08-09T14:59:21.262Z,31.87
2022-08-09T15:01:47.788Z,30.97
2022-08-09T15:04:15.567Z,30.96
2022-08-09T15:06:41.706Z,30.79
2022-08-09T15:09:15.914Z,30.40
2022-08-09T15:12:02.027Z,30.19
2022-08-09T15:14:33.859Z,30.06
2022-08-09T15:17:00.325Z,29.57
2022-08-09T15:19:30.861Z,29.22
2022-08-09T15:22:02.864Z,29.01
2022-08-09T15:24:29.208Z,28.63
2022-08-09T15:26:55.347Z,28.65
2022-08-09T15:30:48.766Z,28.55
2022-08-09T15:32:39.090Z,28.04
2022-08-09T15:34:53.773Z,27.59
2022-08-09T15:37:20.254Z,27.52
2022-08-09T15:39:54.667Z,27.23
2022-08-09T15:42:21.890Z,26.90
2022-08-09T15:44:48.148Z,26.75
2022-08-09T15:47:21.763Z,26.74
2022-08-09T15:50:04.115Z,26.83
2022-08-09T15:52:31.718Z,26.54
2022-08-09T15:54:58.074Z,26.06
2022-08-09T15:57:35.195Z,26.12
2022-08-09T16:00:02.444Z,26.30
2022-08-09T16:02:28.584Z,25.95
2022-08-09T16:04:55.190Z,25.90
2022-08-09T16:07:21.344Z,25.42
2022-08-09T16:09:57.705Z,24.92
2022-08-09T16:12:30.832Z,25.11
2022-08-09T16:14:57.368Z,25.10
2022-08-09T16:17:23.574Z,24.90
2022-08-09T16:20:04.855Z,24.84
2022-08-09T16:22:35.324Z,24.81
2022-08-09T16:25:01.767Z,24.40
2022-08-09T16:27:29.930Z,24.10
2022-08-09T16:30:00.708Z,24.02
2022-08-09T16:32:34.137Z,23.64
2022-08-09T16:35:02.353Z,23.49
2022-08-09T16:37:55.089Z,23.07
2022-08-09T16:40:29.839Z,23.21
2022-08-09T16:43:02.346Z,23.52
2022-08-09T16:45:28.591Z,23.40
2022-08-09T16:48:40.666Z,23.23
2022-08-09T16:50:40.893Z,23.35
2022-08-09T16:53:16.090Z,23.26
2022-08-09T16:55:57.842Z,23.56
2022-08-09T16:58:26.602Z,24.01
2022-08-09T17:00:52.822Z,24.43
2022-08-09T17:03:22.955Z,24.57
2022-08-09T17:06:07.949Z,24.26
2022-08-09T17:08:44.165Z,24.17
2022-08-09T17:11:24.642Z,24.36
2022-08-09T17:14:01.747Z,24.50
2022-08-09T17:16:28.389Z,24.10
2022-08-09T17:18:54.561Z,24.06
2022-08-09T17:21:21.442Z,23.80
2022-08-09T17:24:20.695Z,23.66
2022-08-09T17:26:38.360Z,23.83
2022-08-09T17:29:04.766Z,23.56
2022-08-09T17:31:40.225Z,23.87
2022-08-09T17:34:06.585Z,23.95
2022-08-09T17:36:53.525Z,23.34
2022-08-09T17:39:20.032Z,23.73
2022-08-09T17:41:51.324Z,23.43
2022-08-09T17:44:47.256Z,23.53
2022-08-09T17:47:05.397Z,23.55
2022-08-09T17:49:36.690Z,23.40
2022-08-09T17:52:22.304Z,23.59
2022-08-09T17:54:48.778Z,23.97
2022-08-09T17:57:20.552Z,24.19
2022-08-09T18:00:05.801Z,24.67
2022-08-09T18:02:34.089Z,24.72
2022-08-09T18:05:00.339Z,25.03
2022-08-09T18:07:26.755Z,25.18
2022-08-09T18:10:04.909Z,25.52
2022-08-09T18:12:40.522Z,25.88
2022-08-09T18:15:17.593Z,26.33
2022-08-09T18:18:03.714Z,26.42
2022-08-09T18:20:59.400Z,26.95
2022-08-09T18:24:10.591Z,27.05
2022-08-09T18:26:02.153Z,27.51
2022-08-09T18:30:38.672Z,27.42
2022-08-09T18:31:15.070Z,27.65
2022-08-09T18:33:53.061Z,28.03
2022-08-09T18:36:25.983Z,28.32
2022-08-09T18:39:02.562Z,28.57
2022-08-09T18:41:29.121Z,29.08
2022-08-09T18:44:03.334Z,29.37
2022-08-09T18:46:49.011Z,29.58
2022-08-09T18:49:16.077Z,29.99
2022-08-09T18:51:57.678Z,30.16
2022-08-09T18:54:28.395Z,30.55
2022-08-09T18:56:56.161Z,31.36
2022-08-09T18:59:37.237Z,31.82
2022-08-09T19:02:04.007Z,32.25
2022-08-09T19:04:34.665Z,32.18
2022-08-09T19:07:01.432Z,32.63
2022-08-09T19:10:13.221Z,32.71
2022-08-09T19:12:20.989Z,32.92
2022-08-09T19:14:48.030Z,33.27
2022-08-09T19:17:14.170Z,33.45
2022-08-09T19:19:41.427Z,33.76
2022-08-09T19:22:08.218Z,33.96
2022-08-09T19:25:07.208Z,34.08
2022-08-09T19:27:22.028Z,34.53
2022-08-09T19:30:21.348Z,34.66
2022-08-09T19:32:34.703Z,35.09
2022-08-09T19:35:02.973Z,35.29
2022-08-09T19:37:29.106Z,35.52
2022-08-09T19:40:07.485Z,35.70
2022-08-09T19:42:33.920Z,35.95
2022-08-09T19:45:00.140Z,36.19
2022-08-09T19:47:27.107Z,36.43
2022-08-09T19:50:09.090Z,36.54
2022-08-09T19:52:49.607Z,36.78
2022-08-09T19:55:19.579Z,36.99
2022-08-09T19:57:52.025Z,37.14
2022-08-09T20:00:18.395Z,37.25
2022-08-09T20:04:11.623Z,37.37
2022-08-09T20:05:30.728Z,37.25
2022-08-09T20:08:12.377Z,37.59
2022-08-09T20:10:42.381Z,37.82
2022-08-09T20:13:10.567Z,38.00
2022-08-09T20:16:34.222Z,38.13
2022-08-09T20:18:22.877Z,38.43
2022-08-09T20:20:55.210Z,38.59
2022-08-09T20:23:23.084Z,38.73
2022-08-09T20:25:51.946Z,39.00
2022-08-09T20:28:27.570Z,39.14
2022-08-09T20:31:00.213Z,39.31
2022-08-09T20:33:28.918Z,39.54
2022-08-09T20:36:05.490Z,39.78
2022-08-09T20:38:57.141Z,39.78
2022-08-09T20:41:18.142Z,39.91
2022-08-09T20:43:58.299Z,40.10
2022-08-09T20:46:41.621Z,40.28
2022-08-09T20:49:10.285Z,40.50
2022-08-09T20:51:41.454Z,40.80
2022-08-09T20:54:08.095Z,40.88
2022-08-09T20:56:41.021Z,40.95
2022-08-09T20:59:07.294Z,41.01
2022-08-09T21:01:49.907Z,41.02
2022-08-09T21:05:55.221Z,41.33
2022-08-09T21:07:12.959Z,41.58
2022-08-09T21:09:45.523Z,41.67
2022-08-09T21:14:46.167Z,42.05
2022-08-09T21:18:22.113Z,42.14
2022-08-09T21:20:17.938Z,42.20
2022-08-09T21:22:52.470Z,42.58
2022-08-09T21:25:20.649Z,42.58
2022-08-09T21:27:51.332Z,42.67
2022-08-09T21:30:19.235Z,42.86
2022-08-09T21:32:48.502Z,42.81
2022-08-09T21:35:14.622Z,43.15
2022-08-09T21:37:58.823Z,43.19
2022-08-09T21:40:30.676Z,43.24
2022-08-09T21:42:58.757Z,43.38
2022-08-09T21:45:25.475Z,43.45
2022-08-09T21:47:51.644Z,43.67
2022-08-09T21:50:22.960Z,43.70
2022-08-09T21:53:00.072Z,43.94
2022-08-09T21:55:29.294Z,43.96
2022-08-09T21:58:00.328Z,43.99
2022-08-09T22:00:32.461Z,44.30
2022-08-09T22:02:59.879Z,44.38
2022-08-09T22:05:36.858Z,44.33
2022-08-09T22:08:03.920Z,44.47
2022-08-09T22:10:30.086Z,44.82
2022-08-09T22:12:56.325Z,44.95
2022-08-09T22:15:34.817Z,45.12
2022-08-09T22:18:01.503Z,45.10
2022-08-09T22:20:31.205Z,45.24
2022-08-09T22:22:57.722Z,45.45
2022-08-09T22:26:06.308Z,45.71
2022-08-09T22:28:10.012Z,45.82
2022-08-09T22:30:36.654Z,45.91
2022-08-09T22:33:02.928Z,45.96
2022-08-09T22:36:00.700Z,46.15
2022-08-09T22:38:21.992Z,46.16
2022-08-09T22:40:57.208Z,46.06
2022-08-09T22:44:00.688Z,46.16
2022-08-09T22:48:12.785Z,46.21
2022-08-09T22:48:59.998Z,46.36
2022-08-09T22:51:31.678Z,46.30
2022-08-09T22:54:02.389Z,46.45
2022-08-09T22:56:33.732Z,46.70
2022-08-09T22:59:00.422Z,46.59
2022-08-09T23:01:26.638Z,46.71
2022-08-09T23:04:04.519Z,46.79
2022-08-09T23:06:35.989Z,46.82
2022-08-09T23:09:02.430Z,47.10
2022-08-09T23:11:28.578Z,47.03
2022-08-09T23:13:54.714Z,47.10
2022-08-09T23:16:20.855Z,47.33
2022-08-09T23:18:46.990Z,47.34
2022-08-09T23:21:13.126Z,47.40
2022-08-09T23:23:39.449Z,47.40
2022-08-09T23:26:05.587Z,47.51
2022-08-09T23:28:31.744Z,47.58
2022-08-09T23:30:57.899Z,47.68
2022-08-09T23:33:24.020Z,47.87
2022-08-09T23:36:05.946Z,47.90
2022-08-09T23:38:33.398Z,47.91
2022-08-09T23:40:59.549Z,48.10
2022-08-09T23:43:25.679Z,48.22
2022-08-09T23:45:51.827Z,48.21
2022-08-09T23:48:17.972Z,48.53
2022-08-09T23:50:44.122Z,48.58
2022-08-09T23:53:10.250Z,48.73
2022-08-09T23:55:38.113Z,48.92
2022-08-09T23:58:10.747Z,49.10
